Time;durP1;ratioP1;P1;durP2;ratioP2;P2;SDS_P1;SDS_P2;PMS_P1;PMS_P2;Temp;Humidity;BMP_temperature;BMP_pressure;BME280_temperature;BME280_humidity;BME280_pressure;Samples;Min_cycle;Max_cycle;Signal;HPM_P1;HPM_P2
2024/01/31 00:02:31;;;;;;;38.05;34.53;;;6.10;80.30;;;;;;12115234;29;20418;-74
2024/01/31 00:08:32;;;;;;;47.47;43.67;;;6.10;80.30;;;;;;12130072;29;20037;-74
2024/01/31 00:14:35;;;;;;;53.97;49.28;;;5.80;80.20;;;;;;12129331;29;20048;-74
2024/01/31 00:20:36;;;;;;;50.20;45.13;;;5.50;81.00;;;;;;12130365;29;20345;-74
2024/01/31 00:26:38;;;;;;;45.13;40.45;;;5.70;81.20;;;;;;12130044;29;20448;-74
2024/01/31 00:32:40;;;;;;;59.00;53.47;;;5.80;80.90;;;;;;12113313;29;20107;-74
2024/01/31 00:38:41;;;;;;;43.85;39.10;;;5.80;80.80;;;;;;12129546;29;20037;-74
2024/01/31 00:44:43;;;;;;;54.75;49.83;;;5.80;80.70;;;;;;12112740;29;20033;-74
2024/01/31 00:50:45;;;;;;;57.15;51.92;;;5.60;80.50;;;;;;12129693;29;20063;-74
2024/01/31 00:56:47;;;;;;;43.05;38.72;;;5.50;81.10;;;;;;12128127;29;20456;-74
2024/01/31 01:02:49;;;;;;;58.30;53.13;;;5.60;81.10;;;;;;12128370;29;20033;-74
2024/01/31 01:08:50;;;;;;;44.67;40.17;;;5.50;81.00;;;;;;12128221;29;20029;-74
2024/01/31 01:14:52;;;;;;;40.17;36.00;;;5.50;81.00;;;;;;12127941;29;20040;-74
2024/01/31 01:20:54;;;;;;;49.92;45.33;;;5.50;80.90;;;;;;12127438;29;20029;-74
2024/01/31 01:26:55;;;;;;;49.90;45.03;;;5.50;80.90;;;;;;12127034;29;20040;-74
2024/01/31 01:32:57;;;;;;;39.42;35.03;;;5.40;81.00;;;;;;12126564;29;20057;-74
2024/01/31 01:38:58;;;;;;;48.00;43.00;;;5.50;80.90;;;;;;12126164;29;20033;-74
2024/01/31 01:45:00;;;;;;;43.17;39.80;;;5.40;80.70;;;;;;12109226;29;20056;-74
2024/01/31 01:51:02;;;;;;;51.67;46.20;;;5.20;81.10;;;;;;12125606;29;20033;-74
2024/01/31 01:57:05;;;;;;;43.97;39.13;;;5.20;81.30;;;;;;12125260;29;20045;-74
2024/01/31 02:03:08;;;;;;;40.00;35.80;;;5.30;81.10;;;;;;12125039;29;20041;-74
2024/01/31 02:09:10;;;;;;;45.60;41.13;;;5.20;81.10;;;;;;12125189;29;20056;-74
2024/01/31 02:15:12;;;;;;;36.67;32.65;;;5.30;81.10;;;;;;12125077;29;20064;-74
2024/01/31 02:21:16;;;;;;;45.22;41.35;;;5.20;81.10;;;;;;12124193;29;20048;-74
2024/01/31 02:27:17;;;;;;;37.78;33.90;;;5.20;80.90;;;;;;12107553;29;20453;-74
2024/01/31 02:33:19;;;;;;;46.63;42.72;;;4.90;81.30;;;;;;12123810;29;20044;-74
2024/01/31 02:39:21;;;;;;;55.30;50.15;;;4.70;81.90;;;;;;12123474;29;20033;-74
2024/01/31 02:45:23;;;;;;;35.40;32.10;;;4.80;81.80;;;;;;12123345;29;20044;-73
2024/01/31 02:51:24;;;;;;;50.25;46.40;;;4.60;81.90;;;;;;12153801;23;20375;-74
2024/01/31 02:57:26;;;;;;;38.67;34.65;;;4.50;82.40;;;;;;12152537;29;20044;-74
2024/01/31 03:03:27;;;;;;;50.90;46.85;;;4.70;82.30;;;;;;12169073;29;20037;-74
2024/01/31 03:09:29;;;;;;;37.60;33.80;;;4.80;82.10;;;;;;12169012;29;20051;-74
2024/01/31 03:15:30;;;;;;;35.08;31.52;;;4.90;81.80;;;;;;12168509;29;20036;-74
2024/01/31 03:21:33;;;;;;;35.85;32.55;;;5.00;81.60;;;;;;12168314;29;20036;-74
2024/01/31 03:27:34;;;;;;;35.78;32.42;;;5.00;81.50;;;;;;12168913;29;20033;-74
2024/01/31 03:33:36;;;;;;;44.33;39.92;;;5.10;81.30;;;;;;12151632;29;20063;-74
2024/01/31 03:39:38;;;;;;;42.78;38.95;;;5.20;81.20;;;;;;12168109;29;20471;-74
2024/01/31 03:45:40;;;;;;;39.30;35.55;;;5.40;80.90;;;;;;12167983;29;20051;-74
2024/01/31 03:51:41;;;;;;;49.47;45.15;;;5.50;80.60;;;;;;12168568;29;20041;-74
2024/01/31 03:57:43;;;;;;;39.22;35.22;;;5.20;80.30;;;;;;12167635;29;20040;-74
2024/01/31 04:03:45;;;;;;;36.08;32.53;;;4.90;81.00;;;;;;12167615;29;20028;-73
2024/01/31 04:09:47;;;;;;;38.05;34.38;;;4.90;81.30;;;;;;12150926;29;20459;-74
2024/01/31 04:15:48;;;;;;;35.40;30.77;;;5.00;81.40;;;;;;12167937;29;20040;-74
2024/01/31 04:21:50;;;;;;;39.90;35.95;;;5.10;81.30;;;;;;12167326;29;20040;-74
2024/01/31 04:27:51;;;;;;;39.53;35.50;;;5.20;80.90;;;;;;12167267;29;20033;-74
2024/01/31 04:33:53;;;;;;;51.15;46.83;;;5.40;81.00;;;;;;12175979;29;20088;-73
2024/01/31 04:39:54;;;;;;;40.53;36.70;;;5.60;80.70;;;;;;12158787;29;20041;-73
2024/01/31 04:45:56;;;;;;;49.80;45.95;;;5.60;80.80;;;;;;12158186;29;20043;-74
2024/01/31 04:51:58;;;;;;;42.90;38.72;;;5.30;80.90;;;;;;12174918;29;20064;-73
2024/01/31 04:57:59;;;;;;;34.42;30.95;;;5.20;81.10;;;;;;12174259;29;20044;-74
2024/01/31 05:04:02;;;;;;;44.17;39.63;;;4.90;81.10;;;;;;12174058;29;20032;-74
2024/01/31 05:10:03;;;;;;;59.03;53.60;;;4.60;82.00;;;;;;12173878;29;20091;-74
2024/01/31 05:16:08;;;;;;;50.03;45.65;;;5.00;81.90;;;;;;12173520;29;20048;-74
2024/01/31 05:22:10;;;;;;;44.38;39.70;;;5.30;81.00;;;;;;12173324;29;20044;-74
2024/01/31 05:28:12;;;;;;;41.10;36.50;;;5.50;80.80;;;;;;12173621;29;20043;-74
2024/01/31 05:34:14;;;;;;;52.88;48.45;;;5.70;80.70;;;;;;12172783;29;20037;-73
2024/01/31 05:40:17;;;;;;;64.80;58.90;;;5.80;80.10;;;;;;12155919;29;20047;-74
2024/01/31 05:46:19;;;;;;;56.83;51.25;;;5.70;79.70;;;;;;12172105;29;20052;-73
2024/01/31 05:52:21;;;;;;;53.25;48.20;;;5.80;79.40;;;;;;12172127;29;20052;-74
2024/01/31 05:58:23;;;;;;;48.40;43.97;;;5.80;79.00;;;;;;12171568;29;20044;-74
2024/01/31 06:04:25;;;;;;;54.83;49.95;;;5.80;78.90;;;;;;12154752;29;20364;-73
2024/01/31 06:10:26;;;;;;;53.40;48.65;;;5.70;79.10;;;;;;12171093;29;20044;-74
2024/01/31 06:16:29;;;;;;;70.65;65.47;;;5.90;79.90;;;;;;12138644;29;20049;-73
2024/01/31 06:22:30;;;;;;;40.92;36.72;;;5.80;78.90;;;;;;12153815;29;20447;-74
2024/01/31 06:28:38;;;;;;;47.40;42.78;;;5.30;79.50;;;;;;12171771;29;20040;-73
2024/01/31 06:34:40;;;;;;;49.58;45.55;;;5.00;79.60;;;;;;12170235;29;20040;-73
2024/01/31 06:40:41;;;;;;;72.63;66.43;;;4.50;80.20;;;;;;12169623;29;20040;-73
2024/01/31 06:46:48;;;;;;;61.25;55.13;;;4.70;81.00;;;;;;12177294;29;20458;-74
2024/01/31 06:52:52;;;;;;;49.90;44.53;;;5.20;80.30;;;;;;12198681;29;20048;-74
2024/01/31 06:58:56;;;;;;;59.90;54.45;;;5.50;79.80;;;;;;12199150;29;20052;-74
2024/01/31 07:04:58;;;;;;;56.47;50.85;;;5.70;79.40;;;;;;12215741;29;20028;-74
2024/01/31 07:10:59;;;;;;;48.03;43.67;;;5.60;79.00;;;;;;12215321;29;20155;-74
2024/01/31 07:17:02;;;;;;;66.72;60.90;;;5.50;78.90;;;;;;12198613;29;20048;-74
2024/01/31 07:23:04;;;;;;;80.93;73.60;;;5.10;79.30;;;;;;12215401;29;20032;-74
2024/01/31 07:29:08;;;;;;;55.47;49.88;;;5.20;79.60;;;;;;12216522;29;20032;-74
2024/01/31 07:35:10;;;;;;;55.25;49.63;;;5.40;79.30;;;;;;12215101;29;20047;-74
2024/01/31 07:41:13;;;;;;;73.53;67.00;;;5.50;79.00;;;;;;12215064;29;20459;-75
2024/01/31 07:47:15;;;;;;;54.30;48.78;;;5.40;79.30;;;;;;12214990;29;20059;-75
2024/01/31 07:53:17;;;;;;;63.53;56.80;;;5.60;79.20;;;;;;12198925;29;20040;-75
2024/01/31 07:59:18;;;;;;;73.05;64.85;;;5.70;79.20;;;;;;12182274;29;20055;-75
2024/01/31 08:05:20;;;;;;;56.33;50.58;;;5.90;79.00;;;;;;12219756;29;20575;-75
2024/01/31 08:11:22;;;;;;;79.05;71.53;;;5.80;79.10;;;;;;12223929;29;20043;-74
2024/01/31 08:17:23;;;;;;;65.88;59.40;;;5.80;79.80;;;;;;12222790;29;20024;-73
2024/01/31 08:23:25;;;;;;;98.05;89.57;;;6.10;79.80;;;;;;12205866;29;20032;-74
2024/01/31 08:29:28;;;;;;;68.30;61.90;;;6.10;80.00;;;;;;12222983;29;20039;-73
2024/01/31 08:35:30;;;;;;;65.70;57.22;;;6.20;80.00;;;;;;12205458;29;20351;-74
2024/01/31 08:41:32;;;;;;;67.18;60.38;;;6.20;80.10;;;;;;12221986;29;20035;-74
2024/01/31 08:47:34;;;;;;;61.00;55.00;;;6.10;80.50;;;;;;12199779;29;20039;-74
2024/01/31 08:53:36;;;;;;;60.75;53.85;;;5.90;80.70;;;;;;12174263;29;20040;-73
2024/01/31 08:59:37;;;;;;;53.53;48.25;;;5.70;81.60;;;;;;12174234;29;20448;-74
2024/01/31 09:05:39;;;;;;;70.82;65.10;;;6.10;81.70;;;;;;12172918;29;20444;-74
2024/01/31 09:11:41;;;;;;;54.20;48.40;;;6.20;81.80;;;;;;12172613;29;20051;-74
2024/01/31 09:17:43;;;;;;;76.50;70.40;;;6.30;82.10;;;;;;12172939;29;20446;-74
2024/01/31 09:23:47;;;;;;;48.45;44.20;;;6.50;82.20;;;;;;12173270;29;20035;-74
2024/01/31 09:29:49;;;;;;;37.85;33.28;;;6.70;82.40;;;;;;12173105;29;20044;-74
2024/01/31 09:35:51;;;;;;;58.17;53.60;;;6.80;82.70;;;;;;12172728;29;20040;-74
2024/01/31 09:41:53;;;;;;;56.72;51.88;;;7.00;83.00;;;;;;12156822;29;20043;-74
2024/01/31 09:47:59;;;;;;;68.65;63.25;;;7.20;83.10;;;;;;12155630;29;20071;-74
2024/01/31 09:54:01;;;;;;;55.15;50.53;;;7.20;83.20;;;;;;12173753;29;20055;-74
2024/01/31 10:00:33;;;;;;;41.08;36.92;;;7.20;83.80;;;;;;12172893;29;20036;-74
2024/01/31 10:06:35;;;;;;;39.10;35.38;;;7.30;84.20;;;;;;12171523;29;20044;-75
2024/01/31 10:12:41;;;;;;;40.78;37.13;;;7.30;84.60;;;;;;12171056;29;20033;-74
2024/01/31 10:18:43;;;;;;;39.78;36.15;;;7.50;84.50;;;;;;12154271;29;20048;-74
2024/01/31 10:24:51;;;;;;;32.72;29.88;;;7.50;84.70;;;;;;12171202;29;20447;-74
2024/01/31 10:30:55;;;;;;;34.58;31.52;;;7.60;84.60;;;;;;12169359;29;20051;-74
2024/01/31 10:36:58;;;;;;;50.75;47.17;;;7.60;84.60;;;;;;12169919;29;20044;-74
2024/01/31 10:43:02;;;;;;;56.88;52.72;;;7.70;84.70;;;;;;12153115;29;20029;-74
2024/01/31 10:49:04;;;;;;;82.07;77.82;;;8.00;84.60;;;;;;12159531;23;20049;-73
2024/01/31 10:55:08;;;;;;;79.22;73.85;;;8.10;84.70;;;;;;12153174;29;20036;-73
2024/01/31 11:01:14;;;;;;;84.70;79.55;;;8.40;85.00;;;;;;12168981;29;20077;-74
2024/01/31 11:07:20;;;;;;;131.23;125.15;;;8.60;84.90;;;;;;12168870;29;20063;-74
2024/01/31 11:13:22;;;;;;;157.82;149.68;;;8.80;84.70;;;;;;12152329;29;20060;-74
2024/01/31 11:19:24;;;;;;;162.20;153.93;;;9.10;84.40;;;;;;12168699;29;20059;-74
2024/01/31 11:25:35;;;;;;;113.20;108.07;;;9.40;84.20;;;;;;12136859;29;20041;-74
2024/01/31 11:31:39;;;;;;;133.25;126.72;;;9.50;83.60;;;;;;12152025;29;20037;-74
2024/01/31 11:37:41;;;;;;;113.00;107.38;;;9.70;84.00;;;;;;12170312;29;20032;-74
2024/01/31 11:43:43;;;;;;;53.75;50.00;;;10.20;83.40;;;;;;12161069;29;20032;-75
2024/01/31 11:49:45;;;;;;;29.58;26.00;;;10.50;82.50;;;;;;12177555;29;20039;-75
2024/01/31 11:55:47;;;;;;;24.13;21.35;;;10.70;82.10;;;;;;12177086;29;20079;-75
2024/01/31 12:01:49;;;;;;;18.95;16.83;;;10.70;82.40;;;;;;12177009;29;20033;-75
2024/01/31 12:07:56;;;;;;;30.00;24.70;;;10.80;82.30;;;;;;12159858;29;20055;-76
2024/01/31 12:13:58;;;;;;;20.52;17.27;;;11.00;82.20;;;;;;12176507;29;20075;-75
2024/01/31 12:20:12;;;;;;;18.88;15.43;;;11.00;81.30;;;;;;12143305;29;20055;-75
2024/01/31 12:26:14;;;;;;;21.30;18.90;;;11.00;81.10;;;;;;12157313;29;20455;-75
2024/01/31 12:32:15;;;;;;;24.30;18.20;;;11.00;82.00;;;;;;12170007;29;20109;-75
2024/01/31 12:38:17;;;;;;;25.48;20.35;;;11.20;81.00;;;;;;12170291;29;20347;-75
2024/01/31 12:44:19;;;;;;;20.55;18.40;;;11.10;81.60;;;;;;12173654;29;20032;-75
2024/01/31 12:50:20;;;;;;;19.95;16.35;;;11.30;81.90;;;;;;12157451;29;20048;-75
2024/01/31 12:56:22;;;;;;;23.48;18.17;;;11.50;81.80;;;;;;12173349;29;20463;-76
2024/01/31 13:02:24;;;;;;;22.67;20.13;;;11.50;81.80;;;;;;12153135;29;20028;-75
2024/01/31 13:08:29;;;;;;;21.08;16.13;;;11.50;81.80;;;;;;12175060;29;20440;-75
2024/01/31 13:15:03;;;;;;;21.25;16.15;;;11.20;82.30;;;;;;12157993;29;20049;-75
2024/01/31 13:21:05;;;;;;;21.38;16.33;;;11.20;82.00;;;;;;12174444;29;20043;-75
2024/01/31 13:27:07;;;;;;;23.08;16.33;;;11.20;83.00;;;;;;12174212;29;20035;-76
2024/01/31 13:33:09;;;;;;;20.00;16.20;;;11.50;83.00;;;;;;12156893;29;20053;-75
2024/01/31 13:39:11;;;;;;;15.55;12.45;;;11.80;82.70;;;;;;12155685;29;20037;-76
2024/01/31 13:45:13;;;;;;;18.27;13.68;;;11.70;82.40;;;;;;12172407;29;20043;-75
2024/01/31 13:51:17;;;;;;;17.98;15.00;;;11.70;82.90;;;;;;12172808;29;20037;-76
2024/01/31 13:57:18;;;;;;;24.20;19.08;;;11.90;82.50;;;;;;12171676;29;20044;-75
2024/01/31 14:03:20;;;;;;;20.15;16.65;;;11.90;82.30;;;;;;12155328;29;20470;-75
2024/01/31 14:09:23;;;;;;;17.00;15.07;;;12.10;82.50;;;;;;12171193;29;20313;-75
2024/01/31 14:15:25;;;;;;;24.02;17.30;;;12.00;82.10;;;;;;12154873;29;20038;-75
2024/01/31 14:21:27;;;;;;;19.55;16.25;;;12.10;82.80;;;;;;12154042;29;20052;-75
2024/01/31 14:27:29;;;;;;;15.32;13.60;;;12.10;82.80;;;;;;12170456;29;20028;-75
2024/01/31 14:33:31;;;;;;;17.30;14.25;;;12.10;82.60;;;;;;12169264;29;20371;-75
2024/01/31 14:39:34;;;;;;;19.08;16.15;;;11.90;82.80;;;;;;12154773;29;20063;-75
2024/01/31 14:45:35;;;;;;;15.10;12.18;;;11.80;83.00;;;;;;12154358;29;20071;-75
2024/01/31 14:52:31;;;;;;;21.48;19.35;;;11.70;83.40;;;;;;12168293;29;20044;-75
2024/01/31 14:58:33;;;;;;;20.50;16.23;;;11.50;82.90;;;;;;12169005;29;20029;-75
2024/01/31 15:04:34;;;;;;;23.75;18.33;;;11.40;83.80;;;;;;12152447;29;20039;-75
2024/01/31 15:10:36;;;;;;;21.65;19.13;;;11.50;84.30;;;;;;12168468;29;20048;-75
2024/01/31 15:16:38;;;;;;;27.85;20.95;;;11.70;84.10;;;;;;12168093;29;20314;-75
2024/01/31 15:22:42;;;;;;;31.92;28.95;;;11.30;84.00;;;;;;12168513;29;20344;-75
2024/01/31 15:28:43;;;;;;;26.02;23.02;;;11.20;84.80;;;;;;12163744;29;20450;-75
2024/01/31 15:34:45;;;;;;;27.92;24.67;;;11.40;84.80;;;;;;12165187;29;20048;-75
2024/01/31 15:40:47;;;;;;;27.38;24.02;;;11.40;84.80;;;;;;12168227;29;20036;-75
2024/01/31 15:46:49;;;;;;;37.58;33.90;;;11.20;85.00;;;;;;12152093;29;20055;-75
2024/01/31 15:52:51;;;;;;;84.15;78.97;;;10.90;85.30;;;;;;12167788;29;20041;-76
2024/01/31 15:58:53;;;;;;;54.60;50.28;;;10.80;85.70;;;;;;12167788;29;20041;-75
2024/01/31 16:04:54;;;;;;;59.97;55.60;;;11.10;85.60;;;;;;12167660;29;20032;-75
2024/01/31 16:10:56;;;;;;;58.45;53.65;;;11.00;85.00;;;;;;12164943;29;20044;-76
2024/01/31 16:16:57;;;;;;;44.72;40.58;;;11.10;85.00;;;;;;12162926;29;20040;-75
2024/01/31 16:22:59;;;;;;;93.60;87.88;;;10.90;84.60;;;;;;12167711;29;20036;-76
2024/01/31 16:29:01;;;;;;;86.18;80.70;;;10.80;85.00;;;;;;12175759;29;20040;-75
2024/01/31 16:35:03;;;;;;;109.75;103.35;;;10.90;84.60;;;;;;12175386;29;20040;-75
2024/01/31 16:41:05;;;;;;;88.13;82.47;;;11.00;84.10;;;;;;12175247;29;20037;-75
2024/01/31 16:47:07;;;;;;;132.45;125.10;;;11.00;83.70;;;;;;12175028;29;20052;-75
2024/01/31 16:53:09;;;;;;;110.40;103.32;;;10.90;83.20;;;;;;12174801;29;20033;-75
2024/01/31 16:59:12;;;;;;;110.70;103.45;;;10.80;83.00;;;;;;12174412;29;20436;-75
2024/01/31 17:05:14;;;;;;;170.07;161.20;;;10.60;83.00;;;;;;12173166;29;20041;-75
2024/01/31 17:18:16;;;;;;;174.13;164.73;;;10.20;83.50;;;;;;12173743;29;20044;-75
2024/01/31 17:24:20;;;;;;;159.77;151.10;;;10.00;83.90;;;;;;12172301;29;20033;-75
2024/01/31 17:30:22;;;;;;;149.23;140.90;;;9.80;84.00;;;;;;12173136;29;20047;-75
2024/01/31 17:36:23;;;;;;;66.35;61.10;;;9.70;84.00;;;;;;12172386;29;20036;-75
2024/01/31 17:42:26;;;;;;;63.47;58.70;;;9.50;84.50;;;;;;12171528;29;20037;-75
2024/01/31 17:48:28;;;;;;;70.38;64.30;;;9.60;84.50;;;;;;12172330;29;20037;-75
2024/01/31 17:54:31;;;;;;;78.60;72.95;;;9.60;84.40;;;;;;12172109;29;20351;-75
2024/01/31 18:00:33;;;;;;;96.53;89.35;;;9.70;84.30;;;;;;12171636;29;20032;-75
2024/01/31 18:06:35;;;;;;;113.10;105.80;;;9.70;84.00;;;;;;12170418;29;20360;-75
2024/01/31 18:12:37;;;;;;;92.75;85.65;;;9.70;83.80;;;;;;12170252;29;20032;-75
2024/01/31 18:18:38;;;;;;;86.50;80.28;;;9.70;83.60;;;;;;12170924;29;20463;-75
2024/01/31 18:24:40;;;;;;;80.57;74.30;;;9.70;83.70;;;;;;12170714;29;20048;-75
2024/01/31 18:30:41;;;;;;;60.72;55.08;;;9.60;83.60;;;;;;12171227;29;20043;-75
2024/01/31 18:36:49;;;;;;;62.50;56.75;;;9.60;83.40;;;;;;12168993;29;20047;-75
2024/01/31 18:42:51;;;;;;;54.22;48.92;;;9.50;83.40;;;;;;12153491;29;20041;-75
2024/01/31 18:48:52;;;;;;;66.97;61.13;;;9.40;83.30;;;;;;12174023;23;20360;-75
2024/01/31 18:54:54;;;;;;;60.60;55.33;;;9.20;83.70;;;;;;12152774;29;20463;-75
2024/01/31 19:00:59;;;;;;;52.75;47.35;;;9.20;83.50;;;;;;12138093;29;20447;-76
2024/01/31 19:07:01;;;;;;;45.25;40.97;;;8.90;83.70;;;;;;12169245;29;20427;-75
2024/01/31 19:13:03;;;;;;;46.83;42.33;;;8.60;84.10;;;;;;12152620;29;20051;-75
2024/01/31 19:19:04;;;;;;;52.80;47.65;;;8.50;84.50;;;;;;12169617;29;20040;-75
2024/01/31 19:25:06;;;;;;;58.92;52.88;;;8.70;84.20;;;;;;12168613;29;20300;-75
2024/01/31 19:31:08;;;;;;;56.22;50.75;;;8.80;83.90;;;;;;12169187;29;20036;-75
2024/01/31 19:37:10;;;;;;;48.25;43.17;;;8.90;83.50;;;;;;12152275;29;20047;-75
2024/01/31 19:43:12;;;;;;;54.00;48.22;;;8.90;83.20;;;;;;12168665;29;20032;-75
2024/01/31 19:49:14;;;;;;;55.60;50.38;;;8.90;83.50;;;;;;12151820;29;20360;-76
2024/01/31 19:55:16;;;;;;;66.60;60.28;;;8.90;83.40;;;;;;12151808;29;20049;-75
2024/01/31 20:01:17;;;;;;;62.38;56.15;;;8.80;83.30;;;;;;12173852;29;20355;-75
2024/01/31 20:07:19;;;;;;;53.33;47.95;;;8.80;83.20;;;;;;12160696;29;20091;-75
2024/01/31 20:13:21;;;;;;;49.95;44.33;;;8.70;83.10;;;;;;12160309;29;20456;-75
2024/01/31 20:19:23;;;;;;;55.55;49.72;;;8.60;83.10;;;;;;12177186;29;20055;-75
2024/01/31 20:25:25;;;;;;;52.92;47.42;;;8.50;82.90;;;;;;12177055;29;20024;-75
2024/01/31 20:31:27;;;;;;;55.40;49.72;;;8.40;82.60;;;;;;12176052;29;20032;-75
2024/01/31 20:37:28;;;;;;;45.00;40.40;;;8.30;82.40;;;;;;12174617;29;20039;-75
2024/01/31 20:43:30;;;;;;;39.45;35.40;;;8.20;82.20;;;;;;12175755;29;20040;-75
2024/01/31 20:49:32;;;;;;;41.92;37.65;;;8.20;82.30;;;;;;12158932;29;20048;-75
2024/01/31 20:55:34;;;;;;;50.13;44.25;;;8.20;82.00;;;;;;12175368;29;20036;-75
2024/01/31 21:01:36;;;;;;;59.30;50.85;;;8.20;81.90;;;;;;12175053;29;20035;-75
2024/01/31 21:07:41;;;;;;;72.45;61.30;;;7.90;81.80;;;;;;12175191;29;20428;-75
2024/01/31 21:13:43;;;;;;;81.72;62.70;;;8.00;81.90;;;;;;12174441;29;20162;-75
2024/01/31 21:19:44;;;;;;;68.63;53.72;;;8.10;81.50;;;;;;12174277;29;20037;-75
2024/01/31 21:25:46;;;;;;;76.95;65.28;;;8.20;81.20;;;;;;12172902;29;20032;-75
2024/01/31 21:31:48;;;;;;;71.90;57.08;;;8.20;80.90;;;;;;12157204;29;20040;-75
2024/01/31 21:37:51;;;;;;;78.75;69.95;;;8.20;80.70;;;;;;12173594;29;20032;-75
2024/01/31 21:43:53;;;;;;;56.65;50.42;;;8.10;80.80;;;;;;12173331;29;20036;-75
2024/01/31 21:49:55;;;;;;;54.92;47.55;;;8.10;80.70;;;;;;12172801;29;20044;-75
2024/01/31 21:55:57;;;;;;;58.17;51.25;;;7.90;80.90;;;;;;12171467;29;20041;-75
2024/01/31 22:01:58;;;;;;;62.72;49.55;;;7.90;80.90;;;;;;12170997;29;20032;-74
2024/01/31 22:08:00;;;;;;;58.05;51.65;;;7.90;80.60;;;;;;12171947;29;20040;-75
2024/01/31 22:14:02;;;;;;;61.03;47.15;;;8.00;80.50;;;;;;12155120;29;20075;-75
2024/01/31 22:20:04;;;;;;;51.10;45.55;;;7.80;80.50;;;;;;12171086;29;20047;-75
2024/01/31 22:26:08;;;;;;;57.40;50.15;;;7.80;80.40;;;;;;12169659;29;20048;-75
2024/01/31 22:32:09;;;;;;;54.35;48.45;;;7.70;80.60;;;;;;12170733;29;20040;-75
2024/01/31 22:38:11;;;;;;;54.60;48.05;;;7.50;80.70;;;;;;12153804;29;20037;-75
2024/01/31 22:44:13;;;;;;;52.78;42.85;;;7.20;81.20;;;;;;12153241;29;20044;-75
2024/01/31 22:50:15;;;;;;;50.63;37.28;;;7.30;81.60;;;;;;12154082;29;20082;-74
2024/01/31 22:56:17;;;;;;;55.55;41.17;;;7.10;81.70;;;;;;12169741;29;20032;-74
2024/01/31 23:02:19;;;;;;;52.63;47.25;;;6.90;82.10;;;;;;12169475;29;20348;-74
2024/01/31 23:08:21;;;;;;;45.40;39.97;;;7.00;82.20;;;;;;12169265;29;20032;-74
2024/01/31 23:14:23;;;;;;;49.30;38.80;;;6.90;82.30;;;;;;12152364;29;20060;-75
2024/01/31 23:20:24;;;;;;;43.95;36.05;;;6.90;82.40;;;;;;12152210;29;20056;-74
2024/01/31 23:26:26;;;;;;;43.85;39.45;;;7.00;82.50;;;;;;12169510;29;20039;-74
2024/01/31 23:32:28;;;;;;;45.40;37.75;;;7.00;82.20;;;;;;12168631;29;20047;-75
2024/01/31 23:38:29;;;;;;;41.45;36.38;;;6.90;82.50;;;;;;12177765;29;20048;-74
2024/01/31 23:44:31;;;;;;;50.15;40.67;;;6.90;82.60;;;;;;12177637;29;20032;-74
2024/01/31 23:50:32;;;;;;;38.90;34.88;;;7.00;82.30;;;;;;12178066;29;20447;-74
2024/01/31 23:56:34;;;;;;;44.35;39.85;;;6.80;82.30;;;;;;12176523;29;20037;-75
